UAL62 KHOU-KSAT
Flight info
| Callsign | UAL62 |
|---|---|
| Flight time | 0h 34m |
| Altitude | 24000 |
| Route | RETYR8 WAILN QERVO3 |
| Aircraft | B738/M-SDE2E3FGHIRWXY/LB1 |
Departure
| Time | 2026-04-24 15:01 |
|---|---|
| Airport | William P. Hobby Airport (KHOU) |
Arrival
| Time | 2026-04-24 15:36 |
|---|---|
| Airport | San Antonio International Airport (KSAT) |
| Time | Latitude | Longitude | Altitude | Speed | Heading |
|---|---|---|---|---|---|
| 2026-04-24 14:47 | 29.65229 | -95.27577 | 51 ft | 0 kts | 21° |
| 2026-04-24 14:52 | 29.65216 | -95.27583 | 48 ft | 3 kts | 20° |
| 2026-04-24 14:52 | 29.65197 | -95.27591 | 49 ft | 3 kts | 20° |
| 2026-04-24 14:52 | 29.65179 | -95.27598 | 49 ft | 3 kts | 26° |
| 2026-04-24 14:52 | 29.65162 | -95.27610 | 51 ft | 3 kts | 46° |
| 2026-04-24 14:53 | 29.65150 | -95.27628 | 47 ft | 3 kts | 67° |
| 2026-04-24 14:53 | 29.65144 | -95.27650 | 51 ft | 2 kts | 86° |
| 2026-04-24 14:53 | 29.65144 | -95.27661 | 51 ft | 1 kts | 88° |
| 2026-04-24 14:53 | 29.65144 | -95.27662 | 51 ft | 0 kts | 88° |
| 2026-04-24 14:57 | 29.65144 | -95.27659 | 51 ft | 1 kts | 88° |
| 2026-04-24 14:57 | 29.65145 | -95.27629 | 49 ft | 6 kts | 88° |
| 2026-04-24 14:57 | 29.65146 | -95.27560 | 48 ft | 10 kts | 88° |
| 2026-04-24 14:58 | 29.65148 | -95.27475 | 51 ft | 11 kts | 89° |
| 2026-04-24 14:58 | 29.65166 | -95.27394 | 51 ft | 11 kts | 53° |
| 2026-04-24 14:58 | 29.65218 | -95.27335 | 51 ft | 10 kts | 44° |
| 2026-04-24 14:58 | 29.65269 | -95.27279 | 51 ft | 10 kts | 44° |
| 2026-04-24 14:59 | 29.65319 | -95.27224 | 48 ft | 10 kts | 44° |
| 2026-04-24 14:59 | 29.65367 | -95.27170 | 51 ft | 10 kts | 44° |
| 2026-04-24 14:59 | 29.65414 | -95.27118 | 51 ft | 9 kts | 44° |
| 2026-04-24 14:59 | 29.65460 | -95.27067 | 51 ft | 9 kts | 44° |
| 2026-04-24 15:00 | 29.65489 | -95.27004 | 48 ft | 9 kts | 83° |
| 2026-04-24 15:00 | 29.65463 | -95.26940 | 51 ft | 9 kts | 128° |
| 2026-04-24 15:00 | 29.65415 | -95.26900 | 51 ft | 9 kts | 168° |
| 2026-04-24 15:00 | 29.65358 | -95.26935 | 51 ft | 15 kts | 224° |
| 2026-04-24 15:01 | 29.65185 | -95.27128 | 50 ft | 78 kts | 224° |
| 2026-04-24 15:01 | 29.64588 | -95.27784 | 51 ft | 157 kts | 223° |
| 2026-04-24 15:01 | 29.63657 | -95.28814 | 356 ft | 199 kts | 223° |
| 2026-04-24 15:01 | 29.62703 | -95.29851 | 1683 ft | 181 kts | 221° |
| 2026-04-24 15:02 | 29.61765 | -95.30806 | 2730 ft | 187 kts | 221° |
| 2026-04-24 15:02 | 29.60750 | -95.31870 | 3254 ft | 208 kts | 225° |
| 2026-04-24 15:02 | 29.59807 | -95.33109 | 4227 ft | 208 kts | 234° |
| 2026-04-24 15:02 | 29.59160 | -95.34708 | 4704 ft | 233 kts | 255° |
| 2026-04-24 15:03 | 29.59293 | -95.36598 | 5417 ft | 254 kts | 286° |
| 2026-04-24 15:03 | 29.60065 | -95.38449 | 6228 ft | 264 kts | 294° |
| 2026-04-24 15:03 | 29.60847 | -95.40423 | 6899 ft | 275 kts | 289° |
| 2026-04-24 15:03 | 29.61531 | -95.42514 | 7858 ft | 279 kts | 287° |
| 2026-04-24 15:04 | 29.62143 | -95.44606 | 8916 ft | 274 kts | 287° |
| 2026-04-24 15:04 | 29.62768 | -95.46704 | 9607 ft | 283 kts | 285° |
| 2026-04-24 15:04 | 29.63250 | -95.48924 | 10304 ft | 287 kts | 282° |
| 2026-04-24 15:04 | 29.63742 | -95.51226 | 10585 ft | 309 kts | 283° |
| 2026-04-24 15:05 | 29.64292 | -95.53710 | 10763 ft | 332 kts | 283° |
| 2026-04-24 15:05 | 29.64877 | -95.56364 | 10970 ft | 351 kts | 283° |
| 2026-04-24 15:05 | 29.65477 | -95.59111 | 11481 ft | 358 kts | 283° |
| 2026-04-24 15:05 | 29.66079 | -95.61891 | 12171 ft | 359 kts | 283° |
| 2026-04-24 15:06 | 29.66680 | -95.64689 | 12883 ft | 361 kts | 283° |
| 2026-04-24 15:06 | 29.67280 | -95.67502 | 13586 ft | 363 kts | 283° |
| 2026-04-24 15:06 | 29.67881 | -95.70333 | 14207 ft | 366 kts | 283° |
| 2026-04-24 15:06 | 29.68483 | -95.73171 | 14918 ft | 364 kts | 283° |
| 2026-04-24 15:07 | 29.69081 | -95.75997 | 15618 ft | 364 kts | 283° |
| 2026-04-24 15:07 | 29.69681 | -95.78840 | 16209 ft | 367 kts | 283° |
| 2026-04-24 15:07 | 29.70284 | -95.81699 | 16813 ft | 370 kts | 283° |
| 2026-04-24 15:07 | 29.70892 | -95.84585 | 17400 ft | 373 kts | 283° |
| 2026-04-24 15:08 | 29.71504 | -95.87493 | 18038 ft | 374 kts | 283° |
| 2026-04-24 15:08 | 29.72116 | -95.90405 | 18595 ft | 376 kts | 283° |
| 2026-04-24 15:08 | 29.72733 | -95.93346 | 19100 ft | 379 kts | 283° |
| 2026-04-24 15:08 | 29.73353 | -95.96302 | 19610 ft | 382 kts | 283° |
| 2026-04-24 15:09 | 29.73979 | -95.99287 | 20111 ft | 385 kts | 283° |
| 2026-04-24 15:09 | 29.74577 | -96.02147 | 20579 ft | 387 kts | 283° |
| 2026-04-24 15:09 | 29.75209 | -96.05173 | 21071 ft | 390 kts | 283° |
| 2026-04-24 15:09 | 29.75843 | -96.08212 | 21540 ft | 392 kts | 283° |
| 2026-04-24 15:10 | 29.76473 | -96.11231 | 22002 ft | 394 kts | 283° |
| 2026-04-24 15:10 | 29.77123 | -96.14353 | 22467 ft | 397 kts | 283° |
| 2026-04-24 15:10 | 29.77754 | -96.17408 | 23030 ft | 397 kts | 282° |
| 2026-04-24 15:10 | 29.78191 | -96.20533 | 23638 ft | 395 kts | 276° |
| 2026-04-24 15:11 | 29.78428 | -96.23678 | 23792 ft | 394 kts | 275° |
| 2026-04-24 15:11 | 29.78633 | -96.26809 | 23827 ft | 391 kts | 275° |
| 2026-04-24 15:11 | 29.78836 | -96.29931 | 23844 ft | 392 kts | 275° |
| 2026-04-24 15:11 | 29.79049 | -96.33055 | 23846 ft | 392 kts | 275° |
| 2026-04-24 15:12 | 29.79270 | -96.36182 | 23828 ft | 392 kts | 275° |
| 2026-04-24 15:12 | 29.79726 | -96.42425 | 23835 ft | 391 kts | 275° |
| 2026-04-24 15:12 | 29.79956 | -96.45545 | 23830 ft | 391 kts | 275° |
| 2026-04-24 15:13 | 29.80186 | -96.48669 | 23826 ft | 391 kts | 275° |
| 2026-04-24 15:13 | 29.80414 | -96.51785 | 23810 ft | 391 kts | 275° |
| 2026-04-24 15:13 | 29.80642 | -96.54909 | 23799 ft | 391 kts | 275° |
| 2026-04-24 15:13 | 29.80869 | -96.58032 | 23765 ft | 391 kts | 275° |
| 2026-04-24 15:14 | 29.81099 | -96.61153 | 23767 ft | 391 kts | 275° |
| 2026-04-24 15:14 | 29.81329 | -96.64267 | 23771 ft | 391 kts | 275° |
| 2026-04-24 15:14 | 29.81561 | -96.67389 | 23768 ft | 391 kts | 275° |
| 2026-04-24 15:14 | 29.81791 | -96.70503 | 23784 ft | 391 kts | 275° |
| 2026-04-24 15:15 | 29.82020 | -96.73625 | 23787 ft | 391 kts | 275° |
| 2026-04-24 15:15 | 29.82249 | -96.76752 | 23790 ft | 391 kts | 275° |
| 2026-04-24 15:15 | 29.82476 | -96.79868 | 23776 ft | 392 kts | 275° |
| 2026-04-24 15:15 | 29.82704 | -96.83000 | 23781 ft | 391 kts | 275° |
| 2026-04-24 15:16 | 29.82930 | -96.86123 | 23809 ft | 391 kts | 275° |
| 2026-04-24 15:16 | 29.83155 | -96.89240 | 23811 ft | 391 kts | 275° |
| 2026-04-24 15:16 | 29.83379 | -96.92355 | 23802 ft | 390 kts | 275° |
| 2026-04-24 15:16 | 29.83602 | -96.95461 | 23810 ft | 389 kts | 275° |
| 2026-04-24 15:17 | 29.83824 | -96.98568 | 23813 ft | 389 kts | 275° |
| 2026-04-24 15:17 | 29.84035 | -97.01530 | 23832 ft | 389 kts | 275° |
| 2026-04-24 15:17 | 29.84256 | -97.04634 | 23819 ft | 386 kts | 275° |
| 2026-04-24 15:17 | 29.84469 | -97.07660 | 23809 ft | 371 kts | 275° |
| 2026-04-24 15:18 | 29.84673 | -97.10561 | 23637 ft | 361 kts | 275° |
| 2026-04-24 15:18 | 29.84876 | -97.13444 | 23187 ft | 358 kts | 275° |
| 2026-04-24 15:18 | 29.85077 | -97.16290 | 22751 ft | 355 kts | 275° |
| 2026-04-24 15:18 | 29.85274 | -97.19109 | 22334 ft | 352 kts | 275° |
| 2026-04-24 15:19 | 29.85471 | -97.21920 | 21939 ft | 352 kts | 275° |
| 2026-04-24 15:19 | 29.85667 | -97.24727 | 21541 ft | 351 kts | 275° |
| 2026-04-24 15:19 | 29.85862 | -97.27528 | 21129 ft | 350 kts | 275° |
| 2026-04-24 15:19 | 29.86055 | -97.30316 | 20749 ft | 349 kts | 275° |
| 2026-04-24 15:20 | 29.86247 | -97.33100 | 20370 ft | 348 kts | 275° |
| 2026-04-24 15:20 | 29.86438 | -97.35874 | 19984 ft | 347 kts | 275° |
| 2026-04-24 15:20 | 29.86628 | -97.38642 | 19600 ft | 346 kts | 275° |
| 2026-04-24 15:20 | 29.86817 | -97.41403 | 19214 ft | 345 kts | 275° |
| 2026-04-24 15:21 | 29.87005 | -97.44157 | 18834 ft | 344 kts | 275° |
| 2026-04-24 15:21 | 29.87190 | -97.46892 | 18445 ft | 343 kts | 275° |
| 2026-04-24 15:21 | 29.87374 | -97.49628 | 18050 ft | 342 kts | 275° |
| 2026-04-24 15:21 | 29.87556 | -97.52329 | 17982 ft | 331 kts | 275° |
| 2026-04-24 15:22 | 29.87731 | -97.54938 | 18017 ft | 325 kts | 275° |
| 2026-04-24 15:22 | 29.87907 | -97.57562 | 18058 ft | 332 kts | 275° |
| 2026-04-24 15:22 | 29.88086 | -97.60229 | 18059 ft | 336 kts | 275° |
| 2026-04-24 15:23 | 29.88375 | -97.64667 | 18060 ft | 333 kts | 275° |
| 2026-04-24 15:23 | 29.88711 | -97.69975 | 18070 ft | 331 kts | 275° |
| 2026-04-24 15:23 | 29.88878 | -97.72613 | 18069 ft | 328 kts | 275° |
| 2026-04-24 15:24 | 29.89405 | -97.80440 | 16646 ft | 329 kts | 275° |
| 2026-04-24 15:25 | 29.89548 | -97.85709 | 15725 ft | 328 kts | 264° |
| 2026-04-24 15:25 | 29.88317 | -97.90742 | 14900 ft | 327 kts | 250° |
| 2026-04-24 15:26 | 29.85882 | -97.97990 | 14063 ft | 312 kts | 250° |
| 2026-04-24 15:27 | 29.83689 | -98.04530 | 13811 ft | 283 kts | 250° |
| 2026-04-24 15:27 | 29.81626 | -98.10729 | 13028 ft | 275 kts | 250° |
| 2026-04-24 15:28 | 29.78866 | -98.19015 | 11570 ft | 283 kts | 249° |
| 2026-04-24 15:29 | 29.77495 | -98.23135 | 11237 ft | 272 kts | 249° |
| 2026-04-24 15:30 | 29.75469 | -98.29213 | 10386 ft | 270 kts | 249° |
| 2026-04-24 15:31 | 29.72716 | -98.37466 | 8462 ft | 279 kts | 250° |
| 2026-04-24 15:32 | 29.70053 | -98.45902 | 6579 ft | 282 kts | 253° |
| 2026-04-24 15:33 | 29.67385 | -98.54191 | 4698 ft | 279 kts | 239° |
| 2026-04-24 15:33 | 29.62467 | -98.56788 | 2916 ft | 261 kts | 175° |
| 2026-04-24 15:34 | 29.59440 | -98.55146 | 2354 ft | 228 kts | 140° |
| 2026-04-24 15:35 | 29.56573 | -98.51512 | 1503 ft | 186 kts | 135° |
| 2026-04-24 15:35 | 29.54967 | -98.49437 | 983 ft | 159 kts | 136° |
| 2026-04-24 15:35 | 29.54242 | -98.48501 | 840 ft | 154 kts | 135° |
| 2026-04-24 15:36 | 29.53584 | -98.47656 | 797 ft | 113 kts | 131° |
| 2026-04-24 15:36 | 29.53103 | -98.47225 | 797 ft | 30 kts | 139° |
| 2026-04-24 15:36 | 29.53001 | -98.47102 | 801 ft | 19 kts | 132° |
| 2026-04-24 15:37 | 29.52915 | -98.46991 | 801 ft | 18 kts | 131° |
| 2026-04-24 15:37 | 29.52821 | -98.46907 | 801 ft | 18 kts | 180° |
| 2026-04-24 15:37 | 29.52707 | -98.46875 | 801 ft | 17 kts | 191° |
| 2026-04-24 15:37 | 29.52650 | -98.46926 | 801 ft | 2 kts | 223° |
| 2026-04-24 15:38 | 29.52642 | -98.46940 | 801 ft | 2 kts | 240° |
| 2026-04-24 15:38 | 29.52639 | -98.46957 | 801 ft | 2 kts | 271° |
| 2026-04-24 15:38 | 29.52644 | -98.46973 | 801 ft | 2 kts | 294° |
| 2026-04-24 15:38 | 29.52652 | -98.46987 | 801 ft | 2 kts | 307° |
| 2026-04-24 15:39 | 29.52662 | -98.47001 | 801 ft | 2 kts | 310° |
| 2026-04-24 15:39 | 29.52673 | -98.47015 | 801 ft | 2 kts | 311° |
| 2026-04-24 15:39 | 29.52673 | -98.47016 | 801 ft | 0 kts | 311° |